sensor_id;sensor_type;location;lat;lon;timestamp;P1;durP1;ratioP1;P2;durP2;ratioP2
10894;SDS011;5500;49.886;8.074;2023-05-25T00:02:14;8.37;;;3.10;;
10894;SDS011;5500;49.886;8.074;2023-05-25T00:04:41;8.20;;;2.97;;
10894;SDS011;5500;49.886;8.074;2023-05-25T00:07:13;10.53;;;3.10;;
10894;SDS011;5500;49.886;8.074;2023-05-25T00:09:42;7.40;;;3.00;;
10894;SDS011;5500;49.886;8.074;2023-05-25T00:12:12;6.33;;;2.97;;
10894;SDS011;5500;49.886;8.074;2023-05-25T00:14:40;7.23;;;2.77;;
10894;SDS011;5500;49.886;8.074;2023-05-25T00:17:08;5.57;;;2.70;;
10894;SDS011;5500;49.886;8.074;2023-05-25T00:19:36;5.53;;;3.37;;
10894;SDS011;5500;49.886;8.074;2023-05-25T00:22:07;6.10;;;2.97;;
10894;SDS011;5500;49.886;8.074;2023-05-25T00:24:36;7.27;;;3.03;;
10894;SDS011;5500;49.886;8.074;2023-05-25T00:27:05;6.37;;;3.10;;
10894;SDS011;5500;49.886;8.074;2023-05-25T00:29:33;8.13;;;3.30;;
10894;SDS011;5500;49.886;8.074;2023-05-25T00:32:02;6.43;;;3.30;;
10894;SDS011;5500;49.886;8.074;2023-05-25T00:34:29;4.60;;;3.07;;
10894;SDS011;5500;49.886;8.074;2023-05-25T00:36:57;7.77;;;3.03;;
10894;SDS011;5500;49.886;8.074;2023-05-25T00:39:25;7.73;;;3.63;;
10894;SDS011;5500;49.886;8.074;2023-05-25T00:41:53;9.17;;;3.47;;
10894;SDS011;5500;49.886;8.074;2023-05-25T00:44:22;4.40;;;3.30;;
10894;SDS011;5500;49.886;8.074;2023-05-25T00:46:50;5.73;;;3.30;;
10894;SDS011;5500;49.886;8.074;2023-05-25T00:49:19;7.63;;;3.47;;
10894;SDS011;5500;49.886;8.074;2023-05-25T00:51:48;6.47;;;3.70;;
10894;SDS011;5500;49.886;8.074;2023-05-25T00:54:18;7.83;;;3.20;;
10894;SDS011;5500;49.886;8.074;2023-05-25T00:56:46;6.07;;;3.07;;
10894;SDS011;5500;49.886;8.074;2023-05-25T00:59:19;6.87;;;3.30;;
10894;SDS011;5500;49.886;8.074;2023-05-25T01:01:53;8.30;;;3.73;;
10894;SDS011;5500;49.886;8.074;2023-05-25T01:04:21;8.30;;;3.70;;
10894;SDS011;5500;49.886;8.074;2023-05-25T01:06:49;7.90;;;3.83;;
10894;SDS011;5500;49.886;8.074;2023-05-25T01:09:18;7.13;;;3.37;;
10894;SDS011;5500;49.886;8.074;2023-05-25T01:11:48;7.07;;;3.60;;
10894;SDS011;5500;49.886;8.074;2023-05-25T01:14:17;8.43;;;3.53;;
10894;SDS011;5500;49.886;8.074;2023-05-25T01:16:47;7.53;;;3.60;;
10894;SDS011;5500;49.886;8.074;2023-05-25T01:19:17;8.73;;;3.77;;
10894;SDS011;5500;49.886;8.074;2023-05-25T01:21:46;9.73;;;4.00;;
10894;SDS011;5500;49.886;8.074;2023-05-25T01:24:25;5.63;;;3.20;;
10894;SDS011;5500;49.886;8.074;2023-05-25T01:26:58;12.17;;;4.43;;
10894;SDS011;5500;49.886;8.074;2023-05-25T01:29:31;5.67;;;3.50;;
10894;SDS011;5500;49.886;8.074;2023-05-25T01:32:00;6.57;;;3.80;;
10894;SDS011;5500;49.886;8.074;2023-05-25T01:34:29;9.87;;;3.73;;
10894;SDS011;5500;49.886;8.074;2023-05-25T01:36:59;8.23;;;3.83;;
10894;SDS011;5500;49.886;8.074;2023-05-25T01:39:26;7.53;;;3.83;;
10894;SDS011;5500;49.886;8.074;2023-05-25T01:41:54;9.93;;;3.60;;
10894;SDS011;5500;49.886;8.074;2023-05-25T01:44:22;7.77;;;4.63;;
10894;SDS011;5500;49.886;8.074;2023-05-25T01:46:51;7.27;;;3.67;;
10894;SDS011;5500;49.886;8.074;2023-05-25T01:49:24;8.17;;;3.47;;
10894;SDS011;5500;49.886;8.074;2023-05-25T01:51:55;7.23;;;3.97;;
10894;SDS011;5500;49.886;8.074;2023-05-25T01:54:35;6.10;;;3.77;;
10894;SDS011;5500;49.886;8.074;2023-05-25T01:57:05;7.07;;;4.03;;
10894;SDS011;5500;49.886;8.074;2023-05-25T01:59:34;7.23;;;4.17;;
10894;SDS011;5500;49.886;8.074;2023-05-25T02:02:03;10.23;;;4.43;;
10894;SDS011;5500;49.886;8.074;2023-05-25T02:04:31;8.87;;;4.00;;
10894;SDS011;5500;49.886;8.074;2023-05-25T02:07:01;6.30;;;4.23;;
10894;SDS011;5500;49.886;8.074;2023-05-25T02:09:29;6.70;;;4.20;;
10894;SDS011;5500;49.886;8.074;2023-05-25T02:11:57;10.67;;;4.80;;
10894;SDS011;5500;49.886;8.074;2023-05-25T02:14:25;7.77;;;4.30;;
10894;SDS011;5500;49.886;8.074;2023-05-25T02:16:52;6.40;;;4.67;;
10894;SDS011;5500;49.886;8.074;2023-05-25T02:19:20;7.70;;;4.70;;
10894;SDS011;5500;49.886;8.074;2023-05-25T02:21:48;7.17;;;3.87;;
10894;SDS011;5500;49.886;8.074;2023-05-25T02:24:17;7.50;;;4.83;;
10894;SDS011;5500;49.886;8.074;2023-05-25T02:26:44;10.37;;;4.93;;
10894;SDS011;5500;49.886;8.074;2023-05-25T02:29:12;9.40;;;4.87;;
10894;SDS011;5500;49.886;8.074;2023-05-25T02:31:40;9.47;;;5.10;;
10894;SDS011;5500;49.886;8.074;2023-05-25T02:34:07;7.43;;;4.23;;
10894;SDS011;5500;49.886;8.074;2023-05-25T02:36:36;6.50;;;4.50;;
10894;SDS011;5500;49.886;8.074;2023-05-25T02:39:04;6.10;;;4.53;;
10894;SDS011;5500;49.886;8.074;2023-05-25T02:41:33;11.37;;;4.73;;
10894;SDS011;5500;49.886;8.074;2023-05-25T02:44:01;8.53;;;4.77;;
10894;SDS011;5500;49.886;8.074;2023-05-25T02:46:28;8.73;;;4.50;;
10894;SDS011;5500;49.886;8.074;2023-05-25T02:48:57;5.83;;;4.43;;
10894;SDS011;5500;49.886;8.074;2023-05-25T02:51:25;7.37;;;4.27;;
10894;SDS011;5500;49.886;8.074;2023-05-25T02:53:53;9.57;;;4.60;;
10894;SDS011;5500;49.886;8.074;2023-05-25T02:56:20;10.40;;;4.70;;
10894;SDS011;5500;49.886;8.074;2023-05-25T02:58:49;9.87;;;4.77;;
10894;SDS011;5500;49.886;8.074;2023-05-25T03:01:18;9.40;;;4.50;;
10894;SDS011;5500;49.886;8.074;2023-05-25T03:03:46;7.93;;;5.07;;
10894;SDS011;5500;49.886;8.074;2023-05-25T03:06:17;6.53;;;4.20;;
10894;SDS011;5500;49.886;8.074;2023-05-25T03:08:46;7.63;;;5.43;;
10894;SDS011;5500;49.886;8.074;2023-05-25T03:11:14;11.57;;;4.40;;
10894;SDS011;5500;49.886;8.074;2023-05-25T03:13:41;9.63;;;4.73;;
10894;SDS011;5500;49.886;8.074;2023-05-25T03:16:10;7.83;;;4.87;;
10894;SDS011;5500;49.886;8.074;2023-05-25T03:18:38;9.63;;;4.80;;
10894;SDS011;5500;49.886;8.074;2023-05-25T03:21:06;7.83;;;4.73;;
10894;SDS011;5500;49.886;8.074;2023-05-25T03:23:33;8.73;;;5.07;;
10894;SDS011;5500;49.886;8.074;2023-05-25T03:26:01;9.57;;;5.33;;
10894;SDS011;5500;49.886;8.074;2023-05-25T03:28:29;7.53;;;4.70;;
10894;SDS011;5500;49.886;8.074;2023-05-25T03:30:56;11.10;;;5.27;;
10894;SDS011;5500;49.886;8.074;2023-05-25T03:33:25;6.90;;;5.03;;
10894;SDS011;5500;49.886;8.074;2023-05-25T03:35:53;8.67;;;4.90;;
10894;SDS011;5500;49.886;8.074;2023-05-25T03:38:21;7.67;;;5.43;;
10894;SDS011;5500;49.886;8.074;2023-05-25T03:40:48;11.03;;;5.03;;
10894;SDS011;5500;49.886;8.074;2023-05-25T03:43:16;11.00;;;5.57;;
10894;SDS011;5500;49.886;8.074;2023-05-25T03:45:43;8.93;;;4.67;;
10894;SDS011;5500;49.886;8.074;2023-05-25T03:48:11;6.73;;;5.23;;
10894;SDS011;5500;49.886;8.074;2023-05-25T03:50:40;7.20;;;4.90;;
10894;SDS011;5500;49.886;8.074;2023-05-25T03:53:08;6.17;;;4.57;;
10894;SDS011;5500;49.886;8.074;2023-05-25T03:55:36;6.87;;;4.40;;
10894;SDS011;5500;49.886;8.074;2023-05-25T03:58:04;10.90;;;4.70;;
10894;SDS011;5500;49.886;8.074;2023-05-25T04:00:31;8.47;;;5.00;;
10894;SDS011;5500;49.886;8.074;2023-05-25T04:02:59;6.33;;;4.93;;
10894;SDS011;5500;49.886;8.074;2023-05-25T04:05:27;11.23;;;5.33;;
10894;SDS011;5500;49.886;8.074;2023-05-25T04:07:56;10.37;;;5.20;;
10894;SDS011;5500;49.886;8.074;2023-05-25T04:10:24;8.93;;;5.17;;
10894;SDS011;5500;49.886;8.074;2023-05-25T04:12:52;9.33;;;5.00;;
10894;SDS011;5500;49.886;8.074;2023-05-25T04:15:21;9.27;;;5.33;;
10894;SDS011;5500;49.886;8.074;2023-05-25T04:17:50;7.57;;;5.10;;
10894;SDS011;5500;49.886;8.074;2023-05-25T04:20:17;6.57;;;5.13;;
10894;SDS011;5500;49.886;8.074;2023-05-25T04:22:45;10.30;;;5.20;;
10894;SDS011;5500;49.886;8.074;2023-05-25T04:25:14;9.10;;;5.17;;
10894;SDS011;5500;49.886;8.074;2023-05-25T04:27:45;7.37;;;5.50;;
10894;SDS011;5500;49.886;8.074;2023-05-25T04:30:13;9.93;;;6.03;;
10894;SDS011;5500;49.886;8.074;2023-05-25T04:32:40;8.70;;;5.17;;
10894;SDS011;5500;49.886;8.074;2023-05-25T04:35:10;8.90;;;4.80;;
10894;SDS011;5500;49.886;8.074;2023-05-25T04:37:39;6.87;;;4.73;;
10894;SDS011;5500;49.886;8.074;2023-05-25T04:40:07;8.63;;;4.80;;
10894;SDS011;5500;49.886;8.074;2023-05-25T04:42:38;11.07;;;5.23;;
10894;SDS011;5500;49.886;8.074;2023-05-25T04:45:07;8.03;;;5.10;;
10894;SDS011;5500;49.886;8.074;2023-05-25T04:47:36;11.27;;;4.90;;
10894;SDS011;5500;49.886;8.074;2023-05-25T04:50:06;14.10;;;5.30;;
10894;SDS011;5500;49.886;8.074;2023-05-25T04:52:35;14.60;;;5.60;;
10894;SDS011;5500;49.886;8.074;2023-05-25T04:55:03;6.60;;;4.40;;
10894;SDS011;5500;49.886;8.074;2023-05-25T04:57:31;8.60;;;5.23;;
10894;SDS011;5500;49.886;8.074;2023-05-25T05:00:00;10.17;;;4.87;;
10894;SDS011;5500;49.886;8.074;2023-05-25T05:02:28;11.17;;;4.87;;
10894;SDS011;5500;49.886;8.074;2023-05-25T05:04:56;12.03;;;7.30;;
10894;SDS011;5500;49.886;8.074;2023-05-25T05:07:23;9.47;;;4.47;;
10894;SDS011;5500;49.886;8.074;2023-05-25T05:09:51;9.80;;;5.03;;
10894;SDS011;5500;49.886;8.074;2023-05-25T05:12:19;6.57;;;4.40;;
10894;SDS011;5500;49.886;8.074;2023-05-25T05:14:46;6.50;;;4.50;;
10894;SDS011;5500;49.886;8.074;2023-05-25T05:17:16;11.83;;;4.67;;
10894;SDS011;5500;49.886;8.074;2023-05-25T05:19:44;9.90;;;4.80;;
10894;SDS011;5500;49.886;8.074;2023-05-25T05:22:12;12.03;;;4.87;;
10894;SDS011;5500;49.886;8.074;2023-05-25T05:24:41;13.87;;;5.03;;
10894;SDS011;5500;49.886;8.074;2023-05-25T05:27:08;9.27;;;4.80;;
10894;SDS011;5500;49.886;8.074;2023-05-25T05:29:37;8.27;;;5.10;;
10894;SDS011;5500;49.886;8.074;2023-05-25T05:32:05;8.07;;;5.00;;
10894;SDS011;5500;49.886;8.074;2023-05-25T05:34:34;11.07;;;5.27;;
10894;SDS011;5500;49.886;8.074;2023-05-25T05:37:02;9.87;;;5.23;;
10894;SDS011;5500;49.886;8.074;2023-05-25T05:39:30;11.83;;;5.33;;
10894;SDS011;5500;49.886;8.074;2023-05-25T05:41:58;12.37;;;5.80;;
10894;SDS011;5500;49.886;8.074;2023-05-25T05:44:26;10.07;;;5.63;;
10894;SDS011;5500;49.886;8.074;2023-05-25T05:46:54;10.60;;;4.63;;
10894;SDS011;5500;49.886;8.074;2023-05-25T05:49:26;8.30;;;5.70;;
10894;SDS011;5500;49.886;8.074;2023-05-25T05:51:55;11.60;;;4.40;;
10894;SDS011;5500;49.886;8.074;2023-05-25T05:54:23;14.60;;;5.57;;
10894;SDS011;5500;49.886;8.074;2023-05-25T05:56:52;9.27;;;5.07;;
10894;SDS011;5500;49.886;8.074;2023-05-25T05:59:20;8.23;;;5.10;;
10894;SDS011;5500;49.886;8.074;2023-05-25T06:01:49;9.83;;;4.47;;
10894;SDS011;5500;49.886;8.074;2023-05-25T06:04:17;6.60;;;4.33;;
10894;SDS011;5500;49.886;8.074;2023-05-25T06:06:45;8.90;;;4.73;;
10894;SDS011;5500;49.886;8.074;2023-05-25T06:09:14;6.53;;;4.30;;
10894;SDS011;5500;49.886;8.074;2023-05-25T06:11:41;7.33;;;4.30;;
10894;SDS011;5500;49.886;8.074;2023-05-25T06:14:09;9.77;;;4.40;;
10894;SDS011;5500;49.886;8.074;2023-05-25T06:16:37;8.47;;;3.73;;
10894;SDS011;5500;49.886;8.074;2023-05-25T06:19:05;10.67;;;4.27;;
10894;SDS011;5500;49.886;8.074;2023-05-25T06:21:32;6.73;;;4.07;;
10894;SDS011;5500;49.886;8.074;2023-05-25T06:24:00;7.07;;;3.60;;
10894;SDS011;5500;49.886;8.074;2023-05-25T06:26:29;9.23;;;3.97;;
10894;SDS011;5500;49.886;8.074;2023-05-25T06:28:57;10.77;;;3.90;;
10894;SDS011;5500;49.886;8.074;2023-05-25T06:31:25;11.83;;;4.00;;
10894;SDS011;5500;49.886;8.074;2023-05-25T06:33:52;6.63;;;4.10;;
10894;SDS011;5500;49.886;8.074;2023-05-25T06:36:20;7.87;;;3.70;;
10894;SDS011;5500;49.886;8.074;2023-05-25T06:38:48;7.90;;;3.53;;
10894;SDS011;5500;49.886;8.074;2023-05-25T06:41:15;8.60;;;3.93;;
10894;SDS011;5500;49.886;8.074;2023-05-25T06:43:46;7.20;;;3.43;;
10894;SDS011;5500;49.886;8.074;2023-05-25T06:46:13;6.77;;;3.20;;
10894;SDS011;5500;49.886;8.074;2023-05-25T06:48:43;7.53;;;3.37;;
10894;SDS011;5500;49.886;8.074;2023-05-25T06:51:11;10.77;;;3.63;;
10894;SDS011;5500;49.886;8.074;2023-05-25T06:53:39;6.63;;;3.60;;
10894;SDS011;5500;49.886;8.074;2023-05-25T06:56:08;7.30;;;3.40;;
10894;SDS011;5500;49.886;8.074;2023-05-25T06:58:36;7.13;;;3.13;;
10894;SDS011;5500;49.886;8.074;2023-05-25T07:01:05;8.20;;;3.43;;
10894;SDS011;5500;49.886;8.074;2023-05-25T07:03:33;6.90;;;3.17;;
10894;SDS011;5500;49.886;8.074;2023-05-25T07:06:01;9.33;;;3.87;;
10894;SDS011;5500;49.886;8.074;2023-05-25T07:08:29;8.30;;;3.10;;
10894;SDS011;5500;49.886;8.074;2023-05-25T07:10:57;7.33;;;3.33;;
10894;SDS011;5500;49.886;8.074;2023-05-25T07:13:24;8.33;;;3.33;;
10894;SDS011;5500;49.886;8.074;2023-05-25T07:15:52;7.70;;;3.37;;
10894;SDS011;5500;49.886;8.074;2023-05-25T07:18:21;8.60;;;3.37;;
10894;SDS011;5500;49.886;8.074;2023-05-25T07:20:49;9.80;;;3.43;;
10894;SDS011;5500;49.886;8.074;2023-05-25T07:23:17;9.93;;;2.93;;
10894;SDS011;5500;49.886;8.074;2023-05-25T07:25:44;7.37;;;3.90;;
10894;SDS011;5500;49.886;8.074;2023-05-25T07:28:12;7.63;;;3.60;;
10894;SDS011;5500;49.886;8.074;2023-05-25T07:30:40;9.83;;;3.33;;
10894;SDS011;5500;49.886;8.074;2023-05-25T07:33:08;6.13;;;2.77;;
10894;SDS011;5500;49.886;8.074;2023-05-25T07:35:37;11.00;;;3.07;;
10894;SDS011;5500;49.886;8.074;2023-05-25T07:38:05;8.40;;;3.27;;
10894;SDS011;5500;49.886;8.074;2023-05-25T07:40:32;6.77;;;3.17;;
10894;SDS011;5500;49.886;8.074;2023-05-25T07:43:00;9.80;;;3.43;;
10894;SDS011;5500;49.886;8.074;2023-05-25T07:45:28;4.73;;;3.00;;
10894;SDS011;5500;49.886;8.074;2023-05-25T07:47:55;6.23;;;2.87;;
10894;SDS011;5500;49.886;8.074;2023-05-25T07:50:23;5.50;;;3.03;;
10894;SDS011;5500;49.886;8.074;2023-05-25T07:52:52;7.60;;;3.10;;
10894;SDS011;5500;49.886;8.074;2023-05-25T07:55:20;5.73;;;3.63;;
10894;SDS011;5500;49.886;8.074;2023-05-25T07:57:48;7.63;;;3.40;;
10894;SDS011;5500;49.886;8.074;2023-05-25T08:00:17;5.10;;;2.70;;
10894;SDS011;5500;49.886;8.074;2023-05-25T08:02:45;10.17;;;3.43;;
10894;SDS011;5500;49.886;8.074;2023-05-25T08:05:13;7.87;;;3.87;;
10894;SDS011;5500;49.886;8.074;2023-05-25T08:07:41;10.23;;;3.10;;
10894;SDS011;5500;49.886;8.074;2023-05-25T08:10:10;12.07;;;3.60;;
10894;SDS011;5500;49.886;8.074;2023-05-25T08:12:38;9.13;;;3.53;;
10894;SDS011;5500;49.886;8.074;2023-05-25T08:15:15;6.67;;;3.20;;
10894;SDS011;5500;49.886;8.074;2023-05-25T08:17:42;7.53;;;3.20;;
10894;SDS011;5500;49.886;8.074;2023-05-25T08:20:11;6.73;;;3.33;;
10894;SDS011;5500;49.886;8.074;2023-05-25T08:22:38;8.03;;;3.23;;
10894;SDS011;5500;49.886;8.074;2023-05-25T08:25:06;8.57;;;3.63;;
10894;SDS011;5500;49.886;8.074;2023-05-25T08:27:36;6.57;;;2.60;;
10894;SDS011;5500;49.886;8.074;2023-05-25T08:30:04;7.93;;;3.10;;
10894;SDS011;5500;49.886;8.074;2023-05-25T08:32:32;7.47;;;2.97;;
10894;SDS011;5500;49.886;8.074;2023-05-25T08:35:00;5.00;;;3.03;;
10894;SDS011;5500;49.886;8.074;2023-05-25T08:37:28;5.57;;;3.53;;
10894;SDS011;5500;49.886;8.074;2023-05-25T08:39:56;9.07;;;3.30;;
10894;SDS011;5500;49.886;8.074;2023-05-25T08:42:26;7.00;;;2.97;;
10894;SDS011;5500;49.886;8.074;2023-05-25T08:44:55;7.60;;;2.83;;
10894;SDS011;5500;49.886;8.074;2023-05-25T08:47:24;5.57;;;3.00;;
10894;SDS011;5500;49.886;8.074;2023-05-25T08:49:55;8.10;;;2.87;;
10894;SDS011;5500;49.886;8.074;2023-05-25T08:52:24;8.70;;;3.00;;
10894;SDS011;5500;49.886;8.074;2023-05-25T08:54:53;5.37;;;2.63;;
10894;SDS011;5500;49.886;8.074;2023-05-25T08:57:22;8.23;;;3.03;;
10894;SDS011;5500;49.886;8.074;2023-05-25T08:59:56;8.53;;;2.93;;
10894;SDS011;5500;49.886;8.074;2023-05-25T09:02:31;4.37;;;2.97;;
10894;SDS011;5500;49.886;8.074;2023-05-25T09:05:02;5.27;;;2.90;;
10894;SDS011;5500;49.886;8.074;2023-05-25T09:07:30;4.90;;;2.67;;
10894;SDS011;5500;49.886;8.074;2023-05-25T09:09:58;5.87;;;2.83;;
10894;SDS011;5500;49.886;8.074;2023-05-25T09:12:27;5.23;;;2.80;;
10894;SDS011;5500;49.886;8.074;2023-05-25T09:14:57;5.73;;;3.10;;
10894;SDS011;5500;49.886;8.074;2023-05-25T09:17:25;8.60;;;3.17;;
10894;SDS011;5500;49.886;8.074;2023-05-25T09:19:53;6.07;;;2.60;;
10894;SDS011;5500;49.886;8.074;2023-05-25T09:22:21;8.23;;;2.80;;
10894;SDS011;5500;49.886;8.074;2023-05-25T09:24:49;6.27;;;3.03;;
10894;SDS011;5500;49.886;8.074;2023-05-25T09:27:17;4.20;;;2.73;;
10894;SDS011;5500;49.886;8.074;2023-05-25T09:29:46;9.47;;;3.47;;
10894;SDS011;5500;49.886;8.074;2023-05-25T09:32:18;6.37;;;3.07;;
10894;SDS011;5500;49.886;8.074;2023-05-25T09:34:46;6.20;;;2.60;;
10894;SDS011;5500;49.886;8.074;2023-05-25T09:37:14;7.27;;;2.57;;
10894;SDS011;5500;49.886;8.074;2023-05-25T09:39:44;3.47;;;2.60;;
10894;SDS011;5500;49.886;8.074;2023-05-25T09:42:13;4.70;;;2.90;;
10894;SDS011;5500;49.886;8.074;2023-05-25T09:44:40;6.47;;;2.53;;
10894;SDS011;5500;49.886;8.074;2023-05-25T09:47:08;6.63;;;3.07;;
10894;SDS011;5500;49.886;8.074;2023-05-25T09:49:40;6.00;;;2.63;;
10894;SDS011;5500;49.886;8.074;2023-05-25T09:52:10;3.87;;;2.60;;
10894;SDS011;5500;49.886;8.074;2023-05-25T09:54:38;4.93;;;2.70;;
10894;SDS011;5500;49.886;8.074;2023-05-25T09:57:06;6.73;;;3.20;;
10894;SDS011;5500;49.886;8.074;2023-05-25T09:59:33;4.67;;;2.47;;
10894;SDS011;5500;49.886;8.074;2023-05-25T10:02:01;7.50;;;3.87;;
10894;SDS011;5500;49.886;8.074;2023-05-25T10:04:29;8.37;;;3.30;;
10894;SDS011;5500;49.886;8.074;2023-05-25T10:06:58;8.20;;;3.40;;
10894;SDS011;5500;49.886;8.074;2023-05-25T10:09:27;6.60;;;2.97;;
10894;SDS011;5500;49.886;8.074;2023-05-25T10:11:55;6.07;;;3.17;;
10894;SDS011;5500;49.886;8.074;2023-05-25T10:14:24;8.07;;;4.03;;
10894;SDS011;5500;49.886;8.074;2023-05-25T10:16:56;6.83;;;4.10;;
10894;SDS011;5500;49.886;8.074;2023-05-25T10:19:26;6.73;;;3.30;;
10894;SDS011;5500;49.886;8.074;2023-05-25T10:22:00;8.47;;;3.37;;
10894;SDS011;5500;49.886;8.074;2023-05-25T10:24:33;6.73;;;3.73;;
10894;SDS011;5500;49.886;8.074;2023-05-25T10:27:02;8.23;;;3.10;;
10894;SDS011;5500;49.886;8.074;2023-05-25T10:29:50;5.90;;;3.73;;
10894;SDS011;5500;49.886;8.074;2023-05-25T10:32:18;16.33;;;4.60;;
10894;SDS011;5500;49.886;8.074;2023-05-25T10:34:46;6.20;;;3.40;;
10894;SDS011;5500;49.886;8.074;2023-05-25T10:37:16;5.80;;;3.63;;
10894;SDS011;5500;49.886;8.074;2023-05-25T10:39:44;10.57;;;3.60;;
10894;SDS011;5500;49.886;8.074;2023-05-25T10:42:12;7.57;;;3.40;;
10894;SDS011;5500;49.886;8.074;2023-05-25T10:44:40;7.47;;;3.70;;
10894;SDS011;5500;49.886;8.074;2023-05-25T10:47:08;12.33;;;3.97;;
10894;SDS011;5500;49.886;8.074;2023-05-25T10:49:49;8.13;;;3.50;;
10894;SDS011;5500;49.886;8.074;2023-05-25T10:52:19;6.60;;;3.27;;
10894;SDS011;5500;49.886;8.074;2023-05-25T10:54:47;4.57;;;3.10;;
10894;SDS011;5500;49.886;8.074;2023-05-25T10:57:18;6.10;;;3.07;;
10894;SDS011;5500;49.886;8.074;2023-05-25T10:59:47;7.03;;;3.50;;
10894;SDS011;5500;49.886;8.074;2023-05-25T11:02:15;5.47;;;3.20;;
10894;SDS011;5500;49.886;8.074;2023-05-25T11:04:45;5.13;;;2.70;;
10894;SDS011;5500;49.886;8.074;2023-05-25T11:07:15;6.03;;;3.10;;
10894;SDS011;5500;49.886;8.074;2023-05-25T11:09:56;5.00;;;3.43;;
10894;SDS011;5500;49.886;8.074;2023-05-25T11:12:24;5.80;;;3.10;;
10894;SDS011;5500;49.886;8.074;2023-05-25T11:15:07;9.13;;;3.37;;
10894;SDS011;5500;49.886;8.074;2023-05-25T11:20:27;7.77;;;4.07;;
10894;SDS011;5500;49.886;8.074;2023-05-25T11:22:56;5.60;;;3.13;;
10894;SDS011;5500;49.886;8.074;2023-05-25T11:25:38;8.30;;;3.60;;
10894;SDS011;5500;49.886;8.074;2023-05-25T11:28:08;6.37;;;3.27;;
10894;SDS011;5500;49.886;8.074;2023-05-25T11:30:38;6.67;;;3.83;;
10894;SDS011;5500;49.886;8.074;2023-05-25T11:33:06;8.43;;;3.23;;
10894;SDS011;5500;49.886;8.074;2023-05-25T11:35:34;7.60;;;3.60;;
10894;SDS011;5500;49.886;8.074;2023-05-25T11:38:04;6.17;;;3.60;;
10894;SDS011;5500;49.886;8.074;2023-05-25T11:40:33;5.50;;;3.60;;
10894;SDS011;5500;49.886;8.074;2023-05-25T11:43:06;5.53;;;2.70;;
10894;SDS011;5500;49.886;8.074;2023-05-25T11:45:34;4.70;;;3.53;;
10894;SDS011;5500;49.886;8.074;2023-05-25T11:48:03;6.63;;;3.33;;
10894;SDS011;5500;49.886;8.074;2023-05-25T11:50:31;5.73;;;3.37;;
10894;SDS011;5500;49.886;8.074;2023-05-25T11:52:59;5.33;;;3.20;;
10894;SDS011;5500;49.886;8.074;2023-05-25T11:55:31;4.97;;;3.13;;
10894;SDS011;5500;49.886;8.074;2023-05-25T11:57:58;5.30;;;3.20;;
10894;SDS011;5500;49.886;8.074;2023-05-25T12:00:28;5.83;;;3.20;;
10894;SDS011;5500;49.886;8.074;2023-05-25T12:02:56;7.10;;;3.33;;
10894;SDS011;5500;49.886;8.074;2023-05-25T12:05:24;6.37;;;3.53;;
10894;SDS011;5500;49.886;8.074;2023-05-25T12:07:52;5.60;;;3.27;;
10894;SDS011;5500;49.886;8.074;2023-05-25T12:10:19;6.90;;;4.00;;
10894;SDS011;5500;49.886;8.074;2023-05-25T12:12:48;4.47;;;2.97;;
10894;SDS011;5500;49.886;8.074;2023-05-25T12:15:17;7.40;;;3.60;;
10894;SDS011;5500;49.886;8.074;2023-05-25T12:17:49;5.03;;;3.60;;
10894;SDS011;5500;49.886;8.074;2023-05-25T12:20:17;5.87;;;3.23;;
10894;SDS011;5500;49.886;8.074;2023-05-25T12:22:45;9.50;;;3.50;;
10894;SDS011;5500;49.886;8.074;2023-05-25T12:25:13;5.47;;;2.80;;
10894;SDS011;5500;49.886;8.074;2023-05-25T12:27:45;5.63;;;3.00;;
10894;SDS011;5500;49.886;8.074;2023-05-25T12:30:13;6.20;;;3.10;;
10894;SDS011;5500;49.886;8.074;2023-05-25T12:32:59;4.10;;;3.17;;
10894;SDS011;5500;49.886;8.074;2023-05-25T12:35:30;6.63;;;3.03;;
10894;SDS011;5500;49.886;8.074;2023-05-25T12:38:11;5.63;;;3.47;;
10894;SDS011;5500;49.886;8.074;2023-05-25T12:40:39;4.97;;;2.90;;
10894;SDS011;5500;49.886;8.074;2023-05-25T12:43:08;6.13;;;3.10;;
10894;SDS011;5500;49.886;8.074;2023-05-25T12:45:40;5.80;;;3.43;;
10894;SDS011;5500;49.886;8.074;2023-05-25T12:48:10;5.00;;;3.10;;
10894;SDS011;5500;49.886;8.074;2023-05-25T12:50:37;7.17;;;3.43;;
10894;SDS011;5500;49.886;8.074;2023-05-25T12:53:06;6.43;;;2.73;;
10894;SDS011;5500;49.886;8.074;2023-05-25T12:55:34;4.77;;;3.13;;
10894;SDS011;5500;49.886;8.074;2023-05-25T12:58:03;7.97;;;3.23;;
10894;SDS011;5500;49.886;8.074;2023-05-25T13:00:32;4.40;;;3.13;;
10894;SDS011;5500;49.886;8.074;2023-05-25T13:03:01;7.20;;;3.00;;
10894;SDS011;5500;49.886;8.074;2023-05-25T13:05:31;9.60;;;3.93;;
10894;SDS011;5500;49.886;8.074;2023-05-25T13:08:00;6.87;;;3.70;;
10894;SDS011;5500;49.886;8.074;2023-05-25T13:10:29;7.33;;;3.53;;
10894;SDS011;5500;49.886;8.074;2023-05-25T13:12:58;5.90;;;3.27;;
10894;SDS011;5500;49.886;8.074;2023-05-25T13:15:26;5.30;;;3.20;;
10894;SDS011;5500;49.886;8.074;2023-05-25T13:17:54;5.03;;;3.50;;
10894;SDS011;5500;49.886;8.074;2023-05-25T13:20:24;6.87;;;3.40;;
10894;SDS011;5500;49.886;8.074;2023-05-25T13:22:53;3.37;;;3.07;;
10894;SDS011;5500;49.886;8.074;2023-05-25T13:25:21;5.60;;;3.10;;
10894;SDS011;5500;49.886;8.074;2023-05-25T13:27:52;5.73;;;3.30;;
10894;SDS011;5500;49.886;8.074;2023-05-25T13:30:21;3.03;;;2.73;;
10894;SDS011;5500;49.886;8.074;2023-05-25T13:32:48;4.33;;;3.03;;
10894;SDS011;5500;49.886;8.074;2023-05-25T13:35:17;5.40;;;3.20;;
10894;SDS011;5500;49.886;8.074;2023-05-25T13:38:00;3.53;;;2.93;;
10894;SDS011;5500;49.886;8.074;2023-05-25T13:40:28;7.17;;;3.07;;
10894;SDS011;5500;49.886;8.074;2023-05-25T13:42:55;6.07;;;3.20;;
10894;SDS011;5500;49.886;8.074;2023-05-25T13:45:23;4.13;;;2.90;;
10894;SDS011;5500;49.886;8.074;2023-05-25T13:47:51;5.03;;;3.30;;
10894;SDS011;5500;49.886;8.074;2023-05-25T13:50:19;5.47;;;3.10;;
10894;SDS011;5500;49.886;8.074;2023-05-25T13:52:47;8.40;;;3.60;;
10894;SDS011;5500;49.886;8.074;2023-05-25T13:55:16;5.43;;;3.33;;
10894;SDS011;5500;49.886;8.074;2023-05-25T13:57:44;4.10;;;2.87;;
10894;SDS011;5500;49.886;8.074;2023-05-25T14:00:12;6.57;;;3.33;;
10894;SDS011;5500;49.886;8.074;2023-05-25T14:02:40;4.70;;;3.23;;
10894;SDS011;5500;49.886;8.074;2023-05-25T14:05:11;3.30;;;2.80;;
10894;SDS011;5500;49.886;8.074;2023-05-25T14:07:39;5.03;;;3.03;;
10894;SDS011;5500;49.886;8.074;2023-05-25T14:10:07;4.40;;;2.90;;
10894;SDS011;5500;49.886;8.074;2023-05-25T14:12:37;7.87;;;3.27;;
10894;SDS011;5500;49.886;8.074;2023-05-25T14:15:06;5.83;;;3.20;;
10894;SDS011;5500;49.886;8.074;2023-05-25T14:17:34;4.97;;;3.43;;
10894;SDS011;5500;49.886;8.074;2023-05-25T14:20:03;6.17;;;3.00;;
10894;SDS011;5500;49.886;8.074;2023-05-25T14:22:31;4.67;;;3.07;;
10894;SDS011;5500;49.886;8.074;2023-05-25T14:24:59;4.90;;;3.20;;
10894;SDS011;5500;49.886;8.074;2023-05-25T14:27:27;4.17;;;3.73;;
10894;SDS011;5500;49.886;8.074;2023-05-25T14:29:56;8.93;;;3.80;;
10894;SDS011;5500;49.886;8.074;2023-05-25T14:32:24;4.83;;;3.63;;
10894;SDS011;5500;49.886;8.074;2023-05-25T14:34:52;6.83;;;3.30;;
10894;SDS011;5500;49.886;8.074;2023-05-25T14:37:20;4.90;;;3.40;;
10894;SDS011;5500;49.886;8.074;2023-05-25T14:39:48;5.30;;;3.17;;
10894;SDS011;5500;49.886;8.074;2023-05-25T14:42:16;5.57;;;3.43;;
10894;SDS011;5500;49.886;8.074;2023-05-25T14:44:44;6.97;;;3.60;;
10894;SDS011;5500;49.886;8.074;2023-05-25T14:47:13;4.37;;;2.93;;
10894;SDS011;5500;49.886;8.074;2023-05-25T14:49:41;4.27;;;3.47;;
10894;SDS011;5500;49.886;8.074;2023-05-25T14:52:09;6.07;;;3.63;;
10894;SDS011;5500;49.886;8.074;2023-05-25T14:54:37;5.80;;;3.33;;
10894;SDS011;5500;49.886;8.074;2023-05-25T14:57:10;4.67;;;3.13;;
10894;SDS011;5500;49.886;8.074;2023-05-25T14:59:38;4.80;;;3.50;;
10894;SDS011;5500;49.886;8.074;2023-05-25T15:02:05;5.17;;;3.30;;
10894;SDS011;5500;49.886;8.074;2023-05-25T15:04:35;6.67;;;3.30;;
10894;SDS011;5500;49.886;8.074;2023-05-25T15:07:03;5.77;;;3.53;;
10894;SDS011;5500;49.886;8.074;2023-05-25T15:09:31;6.10;;;3.13;;
10894;SDS011;5500;49.886;8.074;2023-05-25T15:11:59;4.83;;;3.13;;
10894;SDS011;5500;49.886;8.074;2023-05-25T15:14:27;5.37;;;3.60;;